Página principal
METAR-TAF:

METAR-TAF

Aeroportos :

Aeroporto Internacional de N'Djamena

N'Djamena, Chade

latitude: 12-08N, longitude: 015-02E, altura: 295 m

Observação actual do tempo

O boletim foi feito há 29 minutos, às 22:00 UTC
Vento 4 kt de norte
Temperatura 24°C
Humidade 38%
Pressão 1009 hPa
Visibilidade: 8000 m

METAR: FTTJ 152200Z 01004KT 8000 NSC 24/09 Q1009 NOSIG

Hora: 23:29 (22:29 UTC)

Previsão

O boletim foi feito há 5 horas e 29 minutos, às 17:00 UTC
Previsão válida de 15 às 18 UTC a 16 às 24 UTC
Vento 5 kt de nor-noroeste
Visibilidade: 4000 m
poeira extensa
Tornando-se
de 15 às 20 UTC a 15 às 22 UTC
Visibilidade: 6000 m
Temporariamente
de 16 às 06 UTC a 16 às 10 UTC
Visibilidade: 4000 m
poeira extensa
Temporariamente
de 16 às 15 UTC a 16 às 21 UTC
Visibilidade: 4000 m
poeira extensa

TAF: FTTJ 151700Z 1518/1624 34005KT 4000 DU NSC BECMG 1520/1522 6000 NSW TEMPO 1606/1610 4000 DU TEMPO 1615/1621 4000 DU

Observações e previsões do tempo de mais de 4000 aeroportos (mensagens METAR e TAF).

As estações disponíveis são os pontos amarelos e vermelhos sobre o mapa.

Mova o rato sobre o mapa para ver o nome da estação.

Depois clique no ponto para visualizar as observações e previsões meteorológicas.

Para alterar o mapa : clique nos botões verdes com uma cruz preta para aumentar o zoom; no botão verde com uma pitada de zoom; ou nas setas verdes para mapas adjacentes.


METAR-TAF: